D39

Sauk Centre Municipal Airport

Sauk Centre, Minnesota, USA
METAR KD39 182215Z AUTO 13006KT 10SM SCT031 27/19 A3000 RMK AO2 T02650189
Observed Flight Rules
Jul-18 @ 22:15 UTC (16 minutes ago) Visual Flight Rules
Wind Visibility Clouds
130° at 6 knots 10 miles
  • Scattered at 3,100' AGL
Temperatures Readings
Current 27°C / 81°F
Dewpoint 19°C / 66°F
Humidity 62%
Altimeter 30" Hg
Pressure 1016 hPa
Elevation 380
METAR KD39 182215Z AUTO 13006KT 10SM SCT031 27/19 A3000 RMK AO2 T02650189
Observed Flight Rules
Jul-18 @ 22:15 UTC
(16 minutes ago)
VFR
Wind Visibility
130° at 6 knots 10 miles
Clouds
  • Scattered at 3,100' AGL
Temperature Dewpoint
27°C / 81°F 19°C / 66°F
Humidity Altimeter Pressure
62% 30" Hg 1016 hPa